Time;durP1;ratioP1;P1;durP2;ratioP2;P2;SDS_P1;SDS_P2;PMS_P1;PMS_P2;Temp;Humidity;BMP_temperature;BMP_pressure;BME280_temperature;BME280_humidity;BME280_pressure;Samples;Min_cycle;Max_cycle;Signal;HPM_P1;HPM_P2
2022/01/05 00:00:20;;;;;;;0.50;0.40;;;17.40;59.50;;;;;;5104338;28;20043;-57
2022/01/05 00:02:49;;;;;;;0.65;0.50;;;17.40;59.40;;;;;;5104895;28;20075;-58
2022/01/05 00:05:15;;;;;;;0.65;0.60;;;17.40;59.50;;;;;;5104633;28;20035;-57
2022/01/05 00:07:41;;;;;;;0.40;0.40;;;17.30;59.50;;;;;;5103988;28;20066;-57
2022/01/05 00:10:08;;;;;;;0.40;0.40;;;17.30;59.70;;;;;;5104476;28;20137;-58
2022/01/05 00:12:34;;;;;;;0.40;0.40;;;17.40;60.00;;;;;;5104626;28;20038;-58
2022/01/05 00:15:00;;;;;;;0.70;0.50;;;17.40;60.00;;;;;;5104463;28;20028;-58
2022/01/05 00:17:27;;;;;;;0.55;0.55;;;17.40;59.80;;;;;;5104307;28;20032;-57
2022/01/05 00:19:53;;;;;;;0.52;0.40;;;17.40;59.50;;;;;;5104177;28;20066;-58
2022/01/05 00:22:19;;;;;;;0.65;0.52;;;17.40;59.40;;;;;;5104268;28;20077;-58
2022/01/05 00:24:46;;;;;;;0.40;0.40;;;17.30;59.40;;;;;;5104370;28;20238;-59
2022/01/05 00:27:12;;;;;;;0.60;0.60;;;17.30;59.50;;;;;;5103572;28;20024;-57
2022/01/05 00:29:38;;;;;;;0.50;0.50;;;17.30;59.80;;;;;;5104138;28;20028;-57
2022/01/05 00:32:05;;;;;;;0.50;0.40;;;17.30;59.90;;;;;;5104364;28;20035;-58
2022/01/05 00:34:31;;;;;;;0.95;0.50;;;17.40;59.90;;;;;;5104166;28;20751;-57
2022/01/05 00:36:57;;;;;;;0.70;0.47;;;17.40;59.70;;;;;;5102930;28;20032;-58
2022/01/05 00:39:23;;;;;;;0.75;0.40;;;17.40;59.60;;;;;;5103922;28;20036;-57
2022/01/05 00:41:49;;;;;;;0.40;0.40;;;17.40;59.40;;;;;;5103761;28;20020;-57
2022/01/05 00:44:15;;;;;;;0.70;0.60;;;17.30;59.50;;;;;;5103462;28;20077;-57
2022/01/05 00:46:41;;;;;;;0.52;0.40;;;17.30;59.80;;;;;;5104092;28;20067;-57
2022/01/05 00:49:07;;;;;;;0.60;0.40;;;17.30;60.00;;;;;;5103564;28;20024;-58
2022/01/05 00:51:34;;;;;;;0.45;0.40;;;17.40;60.00;;;;;;5103304;28;20048;-58
2022/01/05 00:54:00;;;;;;;0.40;0.40;;;17.40;60.00;;;;;;5103658;28;20028;-57
2022/01/05 00:56:26;;;;;;;0.68;0.40;;;17.40;59.70;;;;;;5103731;28;20067;-57
2022/01/05 00:58:52;;;;;;;0.65;0.50;;;17.40;59.50;;;;;;5087826;28;20060;-58
2022/01/05 01:01:18;;;;;;;0.90;0.40;;;17.30;59.50;;;;;;5083425;28;20027;-58
2022/01/05 01:03:44;;;;;;;0.50;0.40;;;17.30;59.50;;;;;;5083347;28;20036;-58
2022/01/05 01:06:10;;;;;;;0.40;0.40;;;17.20;59.70;;;;;;5090822;28;20025;-58
2022/01/05 01:08:36;;;;;;;0.60;0.40;;;17.30;60.00;;;;;;5102779;28;20125;-58
2022/01/05 01:11:03;;;;;;;0.73;0.50;;;17.40;60.00;;;;;;5103294;28;20096;-57
2022/01/05 01:13:29;;;;;;;0.43;0.40;;;17.40;60.00;;;;;;5103661;28;20024;-58
2022/01/05 01:15:55;;;;;;;0.82;0.50;;;17.40;59.70;;;;;;5103243;28;20028;-58
2022/01/05 01:18:21;;;;;;;0.60;0.57;;;17.40;59.50;;;;;;5102995;28;20028;-58
2022/01/05 01:20:48;;;;;;;0.82;0.50;;;17.30;59.50;;;;;;5101077;28;20057;-56
2022/01/05 01:23:14;;;;;;;0.57;0.40;;;17.30;59.50;;;;;;5103242;28;20024;-58
2022/01/05 01:25:40;;;;;;;0.33;0.30;;;17.20;59.70;;;;;;5103334;28;20027;-58
2022/01/05 01:28:07;;;;;;;0.60;0.50;;;17.30;60.00;;;;;;5094304;28;20032;-57
2022/01/05 01:30:34;;;;;;;0.45;0.45;;;17.40;59.90;;;;;;5082791;28;20023;-58
2022/01/05 01:33:00;;;;;;;0.68;0.57;;;17.40;59.90;;;;;;5082996;28;20032;-57
2022/01/05 01:35:26;;;;;;;0.85;0.38;;;17.40;59.60;;;;;;5084177;28;20032;-59
2022/01/05 01:37:53;;;;;;;0.50;0.50;;;17.30;59.50;;;;;;5102800;28;20024;-58
2022/01/05 01:40:19;;;;;;;0.40;0.40;;;17.30;59.50;;;;;;5102589;28;20042;-58
2022/01/05 01:42:46;;;;;;;1.15;0.60;;;17.20;59.50;;;;;;5103034;28;20091;-58
2022/01/05 01:45:12;;;;;;;0.50;0.50;;;17.20;59.80;;;;;;5102934;28;20024;-57
2022/01/05 01:47:39;;;;;;;0.85;0.52;;;17.30;59.90;;;;;;5103045;28;20746;-58
2022/01/05 01:50:06;;;;;;;0.40;0.40;;;17.40;59.90;;;;;;5102483;28;20039;-57
2022/01/05 01:52:32;;;;;;;0.40;0.40;;;17.40;59.80;;;;;;5102684;28;20083;-58
2022/01/05 01:54:58;;;;;;;0.55;0.50;;;17.40;59.50;;;;;;5102614;28;20020;-58
2022/01/05 01:57:25;;;;;;;0.40;0.40;;;17.30;59.40;;;;;;5102146;28;20024;-58
2022/01/05 01:59:52;;;;;;;0.77;0.57;;;17.30;59.50;;;;;;5102284;28;20040;-57
2022/01/05 02:02:18;;;;;;;0.57;0.40;;;17.20;59.50;;;;;;5102767;28;20035;-58
2022/01/05 02:04:44;;;;;;;0.90;0.50;;;17.30;59.80;;;;;;5102810;28;20024;-58
2022/01/05 02:07:11;;;;;;;0.75;0.57;;;17.30;59.80;;;;;;5101408;28;20079;-58
2022/01/05 02:09:37;;;;;;;0.57;0.55;;;17.30;59.80;;;;;;5102044;28;20060;-58
2022/01/05 02:12:07;;;;;;;0.50;0.50;;;17.40;59.70;;;;;;5102117;28;20074;-58
2022/01/05 02:14:33;;;;;;;1.35;0.70;;;17.30;59.50;;;;;;5102535;28;20062;-57
2022/01/05 02:17:04;;;;;;;0.47;0.43;;;17.30;59.40;;;;;;5102591;28;20020;-57
2022/01/05 02:19:30;;;;;;;0.35;0.35;;;17.20;59.40;;;;;;5102095;28;20040;-58
2022/01/05 02:21:57;;;;;;;1.30;0.50;;;17.20;59.70;;;;;;5102297;28;20032;-57
2022/01/05 02:24:23;;;;;;;0.80;0.50;;;17.30;59.80;;;;;;5102538;28;20767;-57
2022/01/05 02:26:50;;;;;;;0.65;0.57;;;17.30;59.80;;;;;;5102047;28;20030;-57
2022/01/05 02:29:16;;;;;;;0.40;0.40;;;17.40;59.80;;;;;;5083906;28;20036;-58
2022/01/05 02:31:42;;;;;;;0.50;0.50;;;17.40;59.50;;;;;;5083628;28;20088;-57
2022/01/05 02:34:08;;;;;;;0.65;0.60;;;17.30;59.30;;;;;;5086200;28;20028;-58
2022/01/05 02:36:34;;;;;;;0.40;0.40;;;17.30;59.40;;;;;;5097123;28;20053;-58
2022/01/05 02:39:00;;;;;;;0.40;0.40;;;17.20;59.30;;;;;;5106155;28;20035;-57
2022/01/05 02:41:26;;;;;;;0.60;0.60;;;17.20;59.70;;;;;;5106085;28;20028;-59
2022/01/05 02:43:53;;;;;;;0.50;0.43;;;17.30;59.80;;;;;;5106015;28;20024;-58
2022/01/05 02:46:20;;;;;;;0.50;0.50;;;17.40;59.70;;;;;;5106266;28;20020;-57
2022/01/05 02:48:49;;;;;;;0.38;0.38;;;17.40;60.20;;;;;;5106175;28;20600;-58
2022/01/05 02:51:15;;;;;;;0.50;0.40;;;17.40;59.40;;;;;;5102206;28;20028;-57
2022/01/05 02:53:41;;;;;;;0.90;0.60;;;17.30;59.30;;;;;;5106093;28;20039;-57
2022/01/05 02:56:07;;;;;;;0.60;0.37;;;17.30;59.30;;;;;;5106061;28;20028;-58
2022/01/05 02:58:34;;;;;;;0.60;0.60;;;17.30;59.40;;;;;;5092773;28;20040;-57
2022/01/05 03:01:00;;;;;;;0.50;0.50;;;17.30;59.70;;;;;;5092328;28;20023;-57
2022/01/05 03:03:26;;;;;;;0.43;0.40;;;17.40;59.60;;;;;;5106125;28;20024;-58
2022/01/05 03:05:52;;;;;;;0.70;0.68;;;17.40;59.60;;;;;;5105449;28;20035;-58
2022/01/05 03:08:18;;;;;;;0.47;0.47;;;17.40;59.40;;;;;;5105555;28;20048;-58
2022/01/05 03:10:44;;;;;;;0.68;0.50;;;17.30;59.20;;;;;;5105627;28;20202;-58
2022/01/05 03:13:11;;;;;;;0.93;0.68;;;17.30;59.20;;;;;;5105569;28;20036;-58
2022/01/05 03:15:37;;;;;;;0.45;0.45;;;17.30;59.30;;;;;;5105557;28;20035;-58
2022/01/05 03:18:04;;;;;;;0.68;0.52;;;17.30;59.60;;;;;;5105277;28;20032;-57
2022/01/05 03:20:30;;;;;;;0.40;0.40;;;17.30;59.70;;;;;;5105092;28;20074;-58
2022/01/05 03:22:58;;;;;;;0.60;0.60;;;17.40;59.60;;;;;;5105403;28;20050;-58
2022/01/05 03:25:24;;;;;;;;;;;17.40;59.70;;;;;;5105839;28;20028;-58
2022/01/05 03:27:51;;;;;;;0.40;0.40;;;17.40;59.30;;;;;;5099120;28;19912;-58
2022/01/05 03:30:18;;;;;;;0.95;0.60;;;17.30;59.20;;;;;;5083467;28;20043;-56
2022/01/05 03:35:16;;;;;;;0.60;0.50;;;17.20;59.30;;;;;;5084841;28;20036;-55
2022/01/05 03:37:43;;;;;;;0.50;0.50;;;17.20;59.60;;;;;;5084348;28;20025;-57
2022/01/05 03:40:09;;;;;;;0.50;0.50;;;17.30;59.70;;;;;;5084808;28;20043;-58
2022/01/05 03:42:35;;;;;;;0.60;0.57;;;17.40;59.70;;;;;;5084253;28;20028;-57
2022/01/05 03:45:02;;;;;;;0.57;0.40;;;17.40;59.70;;;;;;5094053;28;20032;-57
2022/01/05 03:47:28;;;;;;;0.60;0.50;;;17.40;59.40;;;;;;5105160;28;20396;-58
2022/01/05 03:49:54;;;;;;;0.70;0.50;;;17.30;59.30;;;;;;5104634;28;20032;-57
2022/01/05 03:52:20;;;;;;;0.73;0.60;;;17.30;59.30;;;;;;5104347;28;20026;-58
2022/01/05 03:54:46;;;;;;;0.63;0.50;;;17.20;59.90;;;;;;5104781;28;20518;-58
2022/01/05 03:57:12;;;;;;;0.70;0.60;;;17.30;59.70;;;;;;5103131;28;20055;-58
2022/01/05 03:59:38;;;;;;;0.77;0.60;;;17.30;59.70;;;;;;5084225;28;20037;-58
2022/01/05 04:02:04;;;;;;;0.68;0.60;;;17.40;59.70;;;;;;5087891;28;20027;-57
2022/01/05 04:04:30;;;;;;;0.98;0.60;;;17.40;59.70;;;;;;5104678;28;20032;-57
2022/01/05 04:06:57;;;;;;;0.52;0.52;;;17.40;59.40;;;;;;5104503;28;20032;-58
2022/01/05 04:09:23;;;;;;;0.52;0.40;;;17.40;59.40;;;;;;5103904;28;20044;-57
2022/01/05 04:11:49;;;;;;;0.70;0.55;;;17.30;59.40;;;;;;5097161;28;20035;-57
2022/01/05 04:14:15;;;;;;;0.65;0.63;;;17.30;59.40;;;;;;5087273;28;20028;-58
2022/01/05 04:16:41;;;;;;;0.77;0.68;;;17.20;59.70;;;;;;5104544;28;20032;-58
2022/01/05 04:19:07;;;;;;;0.98;0.75;;;17.30;59.80;;;;;;5104252;28;20055;-57
2022/01/05 04:21:33;;;;;;;1.02;0.55;;;17.40;59.80;;;;;;5104131;28;20024;-57
2022/01/05 04:23:59;;;;;;;0.70;0.57;;;17.40;59.80;;;;;;5104378;28;20330;-58
2022/01/05 04:26:25;;;;;;;0.50;0.50;;;17.40;59.60;;;;;;5104197;28;20016;-58
2022/01/05 04:28:52;;;;;;;0.95;0.60;;;17.40;59.50;;;;;;5088185;28;20409;-58
2022/01/05 04:31:18;;;;;;;0.90;0.60;;;17.40;59.50;;;;;;5084119;28;20032;-56
2022/01/05 04:33:44;;;;;;;0.73;0.63;;;17.30;59.40;;;;;;5093213;28;20178;-58
2022/01/05 04:36:10;;;;;;;0.68;0.50;;;17.20;59.50;;;;;;5103868;28;20088;-58
2022/01/05 04:38:36;;;;;;;0.52;0.50;;;17.30;59.80;;;;;;5103906;28;20062;-57
2022/01/05 04:41:02;;;;;;;1.02;0.50;;;17.30;59.80;;;;;;5103675;28;20042;-57
2022/01/05 04:43:28;;;;;;;0.50;0.47;;;17.40;59.90;;;;;;5103972;28;20096;-55
2022/01/05 04:45:54;;;;;;;0.60;0.57;;;17.40;59.80;;;;;;5103913;28;20030;-59
2022/01/05 04:48:21;;;;;;;0.60;0.60;;;17.40;59.60;;;;;;5103496;28;20167;-57
2022/01/05 04:50:47;;;;;;;0.95;0.70;;;17.40;59.50;;;;;;5103474;28;20114;-57
2022/01/05 04:53:13;;;;;;;0.82;0.70;;;17.30;59.60;;;;;;5103690;28;20077;-57
2022/01/05 04:55:40;;;;;;;0.63;0.50;;;17.30;59.60;;;;;;5103729;28;20036;-57
2022/01/05 04:58:06;;;;;;;1.00;0.80;;;17.30;60.40;;;;;;5095855;28;20043;-56
2022/01/05 05:00:32;;;;;;;0.52;0.50;;;17.40;59.90;;;;;;5103353;28;20050;-57
2022/01/05 05:02:58;;;;;;;1.35;0.70;;;17.40;60.00;;;;;;5103088;28;20084;-57
2022/01/05 05:05:24;;;;;;;1.35;0.60;;;17.40;59.90;;;;;;5103457;28;20110;-57
2022/01/05 05:07:50;;;;;;;0.75;0.60;;;17.40;59.70;;;;;;5103421;28;20040;-58
2022/01/05 05:10:16;;;;;;;0.85;0.73;;;17.40;59.70;;;;;;5103144;28;20039;-58
2022/01/05 05:12:43;;;;;;;1.08;0.85;;;17.30;59.60;;;;;;5103399;28;20039;-59
2022/01/05 05:15:09;;;;;;;0.65;0.60;;;17.30;59.70;;;;;;5092740;28;20025;-57
2022/01/05 05:17:35;;;;;;;0.68;0.57;;;17.30;60.00;;;;;;5083068;28;20028;-57
2022/01/05 05:20:02;;;;;;;0.95;0.60;;;17.40;60.00;;;;;;5082726;28;20043;-57
2022/01/05 05:22:28;;;;;;;0.80;0.60;;;17.40;60.00;;;;;;5082744;28;20027;-57
2022/01/05 05:24:54;;;;;;;0.70;0.60;;;17.40;59.90;;;;;;5082961;28;20273;-57
2022/01/05 05:27:20;;;;;;;0.65;0.65;;;17.40;59.70;;;;;;5083206;28;20023;-57
2022/01/05 05:29:46;;;;;;;0.57;0.55;;;17.40;59.70;;;;;;5082615;28;20098;-57
2022/01/05 05:32:12;;;;;;;0.88;0.60;;;17.30;59.80;;;;;;5082869;28;20048;-55
2022/01/05 05:34:38;;;;;;;0.70;0.60;;;17.30;59.80;;;;;;5082565;28;20036;-57
2022/01/05 05:37:05;;;;;;;0.55;0.55;;;17.30;60.10;;;;;;5098000;28;20024;-56
2022/01/05 05:39:31;;;;;;;0.75;0.70;;;17.40;60.10;;;;;;5103247;28;20126;-57
2022/01/05 05:41:57;;;;;;;0.95;0.52;;;17.40;60.10;;;;;;5102237;28;20034;-57
2022/01/05 05:44:23;;;;;;;0.52;0.40;;;17.40;60.20;;;;;;5102844;28;20032;-57
2022/01/05 05:46:49;;;;;;;0.55;0.50;;;17.40;59.80;;;;;;5102766;28;20058;-58
2022/01/05 05:49:15;;;;;;;0.98;0.70;;;17.40;59.90;;;;;;5102834;28;20092;-55
2022/01/05 05:51:42;;;;;;;0.60;0.60;;;17.30;59.90;;;;;;5102446;28;20082;-57
2022/01/05 05:54:08;;;;;;;1.02;0.60;;;17.30;60.00;;;;;;5102189;28;20032;-58
2022/01/05 05:56:34;;;;;;;1.10;0.80;;;17.30;60.20;;;;;;5102648;28;20028;-57
2022/01/05 05:59:00;;;;;;;1.23;0.60;;;17.40;60.40;;;;;;5085689;28;20040;-57
2022/01/05 06:01:27;;;;;;;0.60;0.60;;;17.40;60.40;;;;;;5082043;28;20036;-57
2022/01/05 06:03:54;;;;;;;0.68;0.50;;;17.40;60.40;;;;;;5080958;28;20032;-57
2022/01/05 06:06:20;;;;;;;0.60;0.60;;;17.40;60.00;;;;;;5090785;28;20723;-56
2022/01/05 06:08:46;;;;;;;1.13;0.50;;;17.40;60.00;;;;;;5102326;28;20229;-56
2022/01/05 06:11:12;;;;;;;1.20;0.68;;;17.30;60.00;;;;;;5100075;28;20052;-56
2022/01/05 06:13:38;;;;;;;0.50;0.50;;;17.30;60.00;;;;;;5082389;28;20198;-57
2022/01/05 06:16:04;;;;;;;1.00;0.63;;;17.30;60.40;;;;;;5100466;28;20032;-55
2022/01/05 06:18:30;;;;;;;0.60;0.50;;;17.40;60.40;;;;;;5102252;28;20028;-54
2022/01/05 06:20:56;;;;;;;0.75;0.60;;;17.40;60.30;;;;;;5102176;28;20039;-57
2022/01/05 06:23:23;;;;;;;0.50;0.50;;;17.40;60.40;;;;;;5102533;28;20020;-56
2022/01/05 06:25:49;;;;;;;0.90;0.70;;;17.40;60.10;;;;;;5102238;28;20039;-57
2022/01/05 06:28:15;;;;;;;0.80;0.50;;;17.40;60.10;;;;;;5092136;28;20032;-57
2022/01/05 06:30:41;;;;;;;0.85;0.63;;;17.30;60.10;;;;;;5081994;28;20056;-57
2022/01/05 06:33:07;;;;;;;0.98;0.60;;;17.30;60.20;;;;;;5082224;28;20052;-57
2022/01/05 06:35:34;;;;;;;1.00;0.60;;;17.30;60.50;;;;;;5086504;28;20047;-57
2022/01/05 06:38:00;;;;;;;0.50;0.50;;;17.40;60.50;;;;;;5102490;28;20031;-57
2022/01/05 06:40:26;;;;;;;0.73;0.70;;;17.40;60.50;;;;;;5102303;28;20036;-57
2022/01/05 06:42:52;;;;;;;0.70;0.70;;;17.40;60.50;;;;;;5101623;28;20020;-58
2022/01/05 06:45:18;;;;;;;0.73;0.57;;;17.40;60.10;;;;;;5102071;28;20032;-58
2022/01/05 06:47:44;;;;;;;0.82;0.70;;;17.40;60.10;;;;;;5102350;28;20164;-57
2022/01/05 06:50:11;;;;;;;0.73;0.70;;;17.40;60.10;;;;;;5101873;28;20032;-58
2022/01/05 06:52:38;;;;;;;0.80;0.50;;;17.30;60.20;;;;;;5101904;28;20039;-56
2022/01/05 06:55:04;;;;;;;0.73;0.60;;;17.30;60.40;;;;;;5102127;28;20038;-59
2022/01/05 06:57:30;;;;;;;0.70;0.60;;;17.40;60.60;;;;;;5101885;28;20039;-57
2022/01/05 06:59:56;;;;;;;1.08;0.68;;;17.40;60.60;;;;;;5102016;28;20641;-56
2022/01/05 07:02:23;;;;;;;0.50;0.50;;;17.50;60.60;;;;;;5084400;28;20037;-57
2022/01/05 07:04:49;;;;;;;0.55;0.55;;;17.40;60.40;;;;;;5102089;28;20031;-57
2022/01/05 07:07:16;;;;;;;0.60;0.50;;;17.40;60.30;;;;;;5101803;28;20038;-57
2022/01/05 07:09:42;;;;;;;1.08;0.50;;;17.40;60.40;;;;;;5101887;28;20060;-57
2022/01/05 07:12:09;;;;;;;1.25;0.75;;;17.30;60.30;;;;;;5101665;28;20040;-57
2022/01/05 07:14:35;;;;;;;0.65;0.60;;;17.30;60.40;;;;;;5102113;28;20032;-57
2022/01/05 07:17:01;;;;;;;0.73;0.60;;;17.30;60.60;;;;;;5102079;28;20051;-56
2022/01/05 07:19:27;;;;;;;0.63;0.60;;;17.40;60.70;;;;;;5104505;28;20036;-56
2022/01/05 07:21:53;;;;;;;0.77;0.70;;;17.40;60.70;;;;;;5105407;28;20028;-56
2022/01/05 07:24:20;;;;;;;0.80;0.60;;;17.50;60.80;;;;;;5105518;28;20028;-57
2022/01/05 07:26:46;;;;;;;0.50;0.50;;;17.50;60.50;;;;;;5105495;28;20016;-57
2022/01/05 07:29:13;;;;;;;0.60;0.57;;;17.40;60.40;;;;;;5105483;28;20028;-57
2022/01/05 07:31:40;;;;;;;0.82;0.60;;;17.40;60.50;;;;;;5105181;28;20024;-57
2022/01/05 07:34:06;;;;;;;0.70;0.55;;;17.30;60.40;;;;;;5105582;28;20484;-58
2022/01/05 07:36:32;;;;;;;0.55;0.50;;;17.30;60.60;;;;;;5105319;28;20027;-57
2022/01/05 07:38:59;;;;;;;0.70;0.50;;;17.40;60.80;;;;;;5105232;28;20487;-57
2022/01/05 07:41:25;;;;;;;0.50;0.50;;;17.40;60.70;;;;;;5103748;28;20084;-56
2022/01/05 07:43:52;;;;;;;0.50;0.50;;;17.50;60.90;;;;;;5105305;28;20089;-57
2022/01/05 07:46:18;;;;;;;0.68;0.60;;;17.50;60.70;;;;;;5105193;28;20048;-57
2022/01/05 07:48:46;;;;;;;0.70;0.60;;;17.50;60.60;;;;;;5105337;28;20035;-57
2022/01/05 07:51:13;;;;;;;0.50;0.45;;;17.40;60.50;;;;;;5105127;28;20035;-57
2022/01/05 07:53:39;;;;;;;1.77;0.68;;;17.40;60.50;;;;;;5103597;28;20115;-57
2022/01/05 07:56:08;;;;;;;0.77;0.68;;;17.30;60.60;;;;;;5104993;28;20077;-57
2022/01/05 07:58:35;;;;;;;0.90;0.52;;;17.30;60.70;;;;;;5104776;28;20040;-56
2022/01/05 08:01:01;;;;;;;0.75;0.52;;;17.40;60.90;;;;;;5104811;28;20400;-56
2022/01/05 08:03:28;;;;;;;0.70;0.60;;;17.40;60.80;;;;;;5104875;28;20035;-56
2022/01/05 08:05:54;;;;;;;0.70;0.50;;;17.50;60.90;;;;;;5104331;28;20031;-57
2022/01/05 08:08:20;;;;;;;0.88;0.60;;;17.50;60.60;;;;;;5103493;28;20047;-57
2022/01/05 08:10:46;;;;;;;0.85;0.68;;;17.40;60.50;;;;;;5104846;28;20896;-57
2022/01/05 08:13:12;;;;;;;0.50;0.50;;;17.40;60.50;;;;;;5104633;28;20028;-57
2022/01/05 08:15:38;;;;;;;0.57;0.52;;;17.30;60.50;;;;;;5104775;28;20028;-57
2022/01/05 08:18:04;;;;;;;0.70;0.70;;;17.30;60.60;;;;;;5104828;28;20396;-58
2022/01/05 08:20:30;;;;;;;0.70;0.65;;;17.30;60.80;;;;;;5104585;28;20124;-57
2022/01/05 08:22:56;;;;;;;1.10;0.65;;;17.40;60.90;;;;;;5104330;28;20028;-57
2022/01/05 08:25:23;;;;;;;0.52;0.47;;;17.40;60.80;;;;;;5104604;28;20032;-56
2022/01/05 08:27:49;;;;;;;0.60;0.60;;;17.50;60.90;;;;;;5104046;28;20019;-54
2022/01/05 08:30:20;;;;;;;1.73;0.70;;;17.50;60.80;;;;;;5104228;28;20081;-57
2022/01/05 08:32:47;;;;;;;1.10;0.57;;;17.50;60.70;;;;;;5104308;28;20028;-57
2022/01/05 08:35:14;;;;;;;0.70;0.70;;;17.40;60.60;;;;;;5104452;28;20058;-56
2022/01/05 08:37:44;;;;;;;0.90;0.73;;;17.40;60.70;;;;;;5083970;28;20082;-57
2022/01/05 08:40:17;;;;;;;0.90;0.68;;;17.30;60.70;;;;;;5084119;28;20095;-57
2022/01/05 08:42:44;;;;;;;0.82;0.63;;;17.40;61.00;;;;;;5098555;28;20056;-57
2022/01/05 08:45:10;;;;;;;0.63;0.60;;;17.50;61.10;;;;;;5104323;28;20062;-57
2022/01/05 08:47:36;;;;;;;0.80;0.65;;;17.50;61.10;;;;;;5104162;28;20042;-57
2022/01/05 08:50:03;;;;;;;0.88;0.82;;;17.50;60.90;;;;;;5103986;28;20032;-57
2022/01/05 08:52:29;;;;;;;0.70;0.60;;;17.50;60.80;;;;;;5103708;28;20027;-57
2022/01/05 08:54:55;;;;;;;1.10;0.70;;;17.50;60.80;;;;;;5103906;28;20272;-58
2022/01/05 08:57:21;;;;;;;1.25;0.70;;;17.40;60.80;;;;;;5103645;28;20020;-57
2022/01/05 08:59:51;;;;;;;0.65;0.60;;;17.40;60.80;;;;;;5103803;28;20035;-57
2022/01/05 09:02:18;;;;;;;0.80;0.60;;;17.30;60.90;;;;;;5104045;28;20028;-57
2022/01/05 09:04:44;;;;;;;0.88;0.60;;;17.30;61.10;;;;;;5103737;28;20048;-57
2022/01/05 09:07:10;;;;;;;0.60;0.55;;;17.40;61.10;;;;;;5103623;28;20123;-57
2022/01/05 09:09:37;;;;;;;0.77;0.68;;;17.50;61.20;;;;;;5103621;28;20052;-57
2022/01/05 09:12:04;;;;;;;0.75;0.70;;;17.50;61.30;;;;;;5103873;28;20032;-56
2022/01/05 09:14:30;;;;;;;0.80;0.70;;;17.50;61.00;;;;;;5103317;28;20032;-57
2022/01/05 09:16:57;;;;;;;0.80;0.80;;;17.40;60.80;;;;;;5103793;28;20028;-57
2022/01/05 09:19:24;;;;;;;0.93;0.60;;;17.40;60.90;;;;;;5103536;28;20032;-57
2022/01/05 09:21:50;;;;;;;2.15;0.63;;;17.30;60.90;;;;;;5102244;28;20441;-55
2022/01/05 09:24:16;;;;;;;0.80;0.65;;;17.30;61.10;;;;;;5103447;28;20027;-57
2022/01/05 09:26:43;;;;;;;0.70;0.60;;;17.40;61.30;;;;;;5103448;28;20039;-55
2022/01/05 09:29:09;;;;;;;0.80;0.70;;;17.50;61.30;;;;;;5085495;28;20028;-57
2022/01/05 09:31:35;;;;;;;1.50;0.70;;;17.50;61.40;;;;;;5083060;28;20040;-57
2022/01/05 09:34:01;;;;;;;0.80;0.75;;;17.50;61.20;;;;;;5082822;28;20025;-57
2022/01/05 09:36:34;;;;;;;1.00;0.68;;;17.50;61.10;;;;;;5093124;28;20029;-57
2022/01/05 09:41:57;;;;;;;0.80;0.70;;;17.40;61.00;;;;;;5102743;28;20058;-56
2022/01/05 09:44:27;;;;;;;0.80;0.70;;;17.30;61.10;;;;;;5103126;28;20100;-57
2022/01/05 09:47:09;;;;;;;0.80;0.80;;;17.30;61.10;;;;;;5103298;28;20028;-57
2022/01/05 09:49:39;;;;;;;0.60;0.60;;;17.30;61.40;;;;;;5118554;28;20028;-57
2022/01/05 09:52:07;;;;;;;0.50;0.50;;;17.40;61.40;;;;;;5103022;28;20035;-57
2022/01/05 09:54:42;;;;;;;1.05;0.80;;;17.50;61.50;;;;;;5102838;28;20083;-57
2022/01/05 09:57:08;;;;;;;0.63;0.50;;;17.50;61.50;;;;;;5102155;28;20096;-56
2022/01/05 09:59:35;;;;;;;1.13;0.70;;;17.50;61.30;;;;;;5098001;28;20033;-57
2022/01/05 10:02:03;;;;;;;0.60;0.60;;;17.40;61.10;;;;;;5081456;28;20052;-57
2022/01/05 10:04:29;;;;;;;0.88;0.70;;;17.40;61.10;;;;;;5089332;28;20016;-57
2022/01/05 10:06:55;;;;;;;0.90;0.77;;;17.40;61.20;;;;;;5081404;28;20025;-57
2022/01/05 10:09:21;;;;;;;0.85;0.60;;;17.30;61.30;;;;;;5082562;28;20055;-57
2022/01/05 10:11:50;;;;;;;0.85;0.70;;;17.40;61.40;;;;;;5090030;28;20837;-56
2022/01/05 10:14:16;;;;;;;0.70;0.65;;;17.40;61.40;;;;;;5118284;28;20084;-56
2022/01/05 10:16:43;;;;;;;0.70;0.70;;;17.50;61.50;;;;;;5102852;28;20042;-56
2022/01/05 10:19:20;;;;;;;1.63;0.65;;;17.50;61.50;;;;;;5100810;28;20031;-57
2022/01/05 10:21:46;;;;;;;0.82;0.80;;;17.50;61.30;;;;;;5102620;28;20020;-56
2022/01/05 10:24:12;;;;;;;0.90;0.77;;;17.50;61.20;;;;;;5102381;28;20039;-56
2022/01/05 10:26:39;;;;;;;0.85;0.60;;;17.40;61.20;;;;;;5102801;28;20020;-57
2022/01/05 10:29:15;;;;;;;1.10;0.63;;;17.40;61.30;;;;;;5085612;28;20037;-56
2022/01/05 10:31:41;;;;;;;0.73;0.73;;;17.40;61.40;;;;;;5082631;28;20032;-57
2022/01/05 10:34:21;;;;;;;0.77;0.70;;;17.40;62.10;;;;;;5082687;28;20036;-57
2022/01/05 10:36:49;;;;;;;0.70;0.70;;;17.50;61.50;;;;;;5101500;28;20325;-57
2022/01/05 10:39:15;;;;;;;1.15;0.60;;;17.50;61.60;;;;;;5102521;28;20070;-56
2022/01/05 10:41:43;;;;;;;0.95;0.80;;;17.50;61.40;;;;;;5102588;28;20039;-57
2022/01/05 10:44:17;;;;;;;0.60;0.60;;;17.50;61.30;;;;;;5102756;28;20028;-58
2022/01/05 10:46:54;;;;;;;1.40;0.70;;;17.40;61.40;;;;;;5102699;28;20028;-58
2022/01/05 10:49:37;;;;;;;0.93;0.70;;;17.40;61.40;;;;;;5102439;28;20024;-58
2022/01/05 10:52:24;;;;;;;0.80;0.70;;;17.30;61.50;;;;;;5102764;28;20295;-56
2022/01/05 10:54:50;;;;;;;0.98;0.70;;;17.40;61.60;;;;;;5103922;28;20024;-58
2022/01/05 10:57:16;;;;;;;0.77;0.77;;;17.50;61.70;;;;;;5105391;28;20218;-56
2022/01/05 10:59:44;;;;;;;0.82;0.80;;;17.50;61.70;;;;;;5092331;28;20031;-58
2022/01/05 11:02:30;;;;;;;1.00;0.90;;;17.50;61.50;;;;;;5106287;28;20038;-56
2022/01/05 11:05:09;;;;;;;1.00;0.70;;;17.40;61.40;;;;;;5106466;28;20058;-56
2022/01/05 11:07:39;;;;;;;0.95;0.70;;;17.40;61.50;;;;;;5106071;28;20054;-57
2022/01/05 11:10:09;;;;;;;0.93;0.70;;;17.30;61.50;;;;;;5106015;28;20571;-57
2022/01/05 11:12:37;;;;;;;0.90;0.80;;;17.30;61.50;;;;;;5106161;28;20036;-56
2022/01/05 11:15:23;;;;;;;0.80;0.80;;;17.30;61.70;;;;;;5106092;28;20047;-58
2022/01/05 11:18:08;;;;;;;0.85;0.80;;;17.40;61.70;;;;;;5105820;28;20080;-57
2022/01/05 11:20:43;;;;;;;0.90;0.70;;;17.50;61.90;;;;;;5105495;28;20028;-59
2022/01/05 11:23:09;;;;;;;0.60;0.60;;;17.50;61.80;;;;;;5105627;28;20084;-58
2022/01/05 11:25:36;;;;;;;0.95;0.70;;;17.50;61.60;;;;;;5105707;28;20035;-57
2022/01/05 11:28:03;;;;;;;0.82;0.65;;;17.40;61.50;;;;;;5099018;28;20039;-57
2022/01/05 11:30:29;;;;;;;0.77;0.70;;;17.40;61.50;;;;;;5085155;28;20555;-58
2022/01/05 11:32:55;;;;;;;0.93;0.77;;;17.40;61.70;;;;;;5085330;28;20032;-57
2022/01/05 11:35:22;;;;;;;1.00;0.90;;;17.30;61.70;;;;;;5086289;28;20025;-56
2022/01/05 11:37:48;;;;;;;0.68;0.63;;;17.30;61.80;;;;;;5105643;28;20041;-58
2022/01/05 11:40:15;;;;;;;1.00;0.85;;;17.40;61.80;;;;;;5103788;28;20036;-56
2022/01/05 11:42:41;;;;;;;0.73;0.70;;;17.50;61.90;;;;;;5104039;28;20032;-56
2022/01/05 11:45:10;;;;;;;0.70;0.70;;;17.50;61.90;;;;;;5105476;28;20061;-57
2022/01/05 11:47:40;;;;;;;1.35;0.70;;;17.50;61.70;;;;;;5121076;28;20032;-57
2022/01/05 11:50:15;;;;;;;0.77;0.77;;;17.50;61.60;;;;;;5105321;28;20039;-56
2022/01/05 11:53:00;;;;;;;0.70;0.68;;;17.40;61.60;;;;;;5105089;28;20127;-58
2022/01/05 11:55:27;;;;;;;0.65;0.65;;;17.40;61.70;;;;;;5084862;28;20817;-58
2022/01/05 11:58:18;;;;;;;0.70;0.70;;;17.30;61.70;;;;;;5091107;28;20100;-58
2022/01/05 12:00:45;;;;;;;0.82;0.80;;;17.40;61.80;;;;;;5104485;28;20036;-57
2022/01/05 12:03:11;;;;;;;1.10;0.70;;;17.40;61.90;;;;;;5104962;28;20027;-57
2022/01/05 12:06:03;;;;;;;0.93;0.80;;;17.50;62.00;;;;;;5104569;28;20028;-58
2022/01/05 12:08:53;;;;;;;0.80;0.80;;;17.50;61.90;;;;;;5105067;28;20079;-57
2022/01/05 12:11:49;;;;;;;1.00;0.80;;;17.50;61.80;;;;;;5104584;28;20032;-57
2022/01/05 12:14:21;;;;;;;0.85;0.70;;;17.40;61.70;;;;;;5104529;28;20083;-58
2022/01/05 12:17:03;;;;;;;1.02;0.80;;;17.40;61.80;;;;;;5104917;28;20032;-56
2022/01/05 12:19:48;;;;;;;0.70;0.70;;;17.30;61.80;;;;;;5104771;28;20073;-55
2022/01/05 12:22:18;;;;;;;1.13;0.98;;;17.30;61.90;;;;;;5102815;28;20021;-58
2022/01/05 12:24:56;;;;;;;0.95;0.90;;;17.40;62.10;;;;;;5104767;28;20020;-58
2022/01/05 12:27:25;;;;;;;1.42;1.00;;;17.40;62.10;;;;;;5103338;28;20024;-55
2022/01/05 12:29:52;;;;;;;1.02;0.73;;;17.50;62.10;;;;;;5084239;28;20056;-57
2022/01/05 12:32:37;;;;;;;1.17;1.00;;;17.50;62.10;;;;;;5082666;28;20115;-57
2022/01/05 12:35:04;;;;;;;1.15;0.68;;;17.50;61.90;;;;;;5084332;28;20032;-57
2022/01/05 12:37:54;;;;;;;0.80;0.80;;;17.40;61.90;;;;;;5102788;28;20027;-56
2022/01/05 12:40:34;;;;;;;1.35;0.80;;;17.40;61.90;;;;;;5103975;28;20064;-57
2022/01/05 12:43:06;;;;;;;0.90;0.73;;;17.30;61.90;;;;;;5104244;28;20115;-56
2022/01/05 12:45:54;;;;;;;0.98;0.82;;;17.30;62.00;;;;;;5104300;28;20093;-57
2022/01/05 12:48:33;;;;;;;0.98;0.85;;;17.40;62.20;;;;;;5104382;28;20102;-57
2022/01/05 12:51:17;;;;;;;1.13;1.00;;;17.50;62.20;;;;;;5103419;28;20047;-56
2022/01/05 12:54:01;;;;;;;1.45;0.90;;;17.50;62.20;;;;;;5103946;28;20028;-56
2022/01/05 12:56:34;;;;;;;1.00;0.90;;;17.50;62.00;;;;;;5104030;28;20036;-56